Time;durP1;ratioP1;P1;durP2;ratioP2;P2;SDS_P1;SDS_P2;PMS_P1;PMS_P2;Temp;Humidity;BMP_temperature;BMP_pressure;BME280_temperature;BME280_humidity;BME280_pressure;Samples;Min_cycle;Max_cycle;Signal;HPM_P1;HPM_P2
2023/07/10 00:01:32;;;;;;;6.22;3.17;;;;;;;25.49;41.80;99913.09;4407468;32;35027;-65
2023/07/10 00:04:00;;;;;;;5.40;2.62;;;;;;;25.32;42.13;99908.00;4433865;32;33201;-67
2023/07/10 00:06:28;;;;;;;17.23;3.58;;;;;;;25.19;42.44;99902.50;4433974;32;33690;-67
2023/07/10 00:08:55;;;;;;;4.20;2.60;;;;;;;25.41;42.00;99905.94;4434669;32;34346;-64
2023/07/10 00:11:26;;;;;;;7.68;3.37;;;;;;;25.30;42.28;99906.56;4435794;32;34003;-67
2023/07/10 00:13:55;;;;;;;5.50;2.92;;;;;;;25.10;42.74;99903.69;4435366;32;34119;-63
2023/07/10 00:16:24;;;;;;;6.30;2.92;;;;;;;25.12;42.66;99906.25;4434917;32;32682;-68
2023/07/10 00:18:51;;;;;;;6.62;3.33;;;;;;;25.09;42.74;99913.81;4432279;32;35196;-65
2023/07/10 00:21:19;;;;;;;4.75;2.75;;;;;;;25.13;42.67;99906.06;4432891;32;33863;-68
2023/07/10 00:23:47;;;;;;;6.32;3.47;;;;;;;25.16;42.69;99900.16;4432802;32;34127;-67
2023/07/10 00:26:14;;;;;;;5.55;3.25;;;;;;;25.14;42.76;99907.78;4435651;32;34229;-66
2023/07/10 00:28:42;;;;;;;7.65;2.85;;;;;;;25.16;42.66;99902.91;4432130;32;34972;-62
2023/07/10 00:31:12;;;;;;;4.57;2.47;;;;;;;25.23;42.50;99906.53;4433636;32;33906;-66
2023/07/10 00:33:40;;;;;;;6.80;2.85;;;;;;;25.20;42.36;99906.06;4431963;32;32708;-67
2023/07/10 00:36:21;;;;;;;4.87;2.60;;;;;;;25.26;42.13;99906.09;4434488;32;33868;-67
2023/07/10 00:38:50;;;;;;;3.67;2.35;;;;;;;25.30;42.09;99909.28;4433687;32;33420;-63
2023/07/10 00:41:17;;;;;;;4.20;2.50;;;;;;;25.28;42.14;99914.97;4435296;32;33581;-67
2023/07/10 00:43:48;;;;;;;4.62;2.67;;;;;;;25.30;42.28;99906.56;4433275;32;33127;-66
2023/07/10 00:46:22;;;;;;;4.53;2.58;;;;;;;25.32;42.04;99912.66;4434322;32;34107;-67
2023/07/10 00:48:56;;;;;;;6.15;3.05;;;;;;;25.34;42.03;99910.56;4426718;32;34081;-68
2023/07/10 00:51:27;;;;;;;4.72;2.95;;;;;;;25.32;42.08;99909.91;4429130;32;33700;-68
2023/07/10 00:53:55;;;;;;;4.22;2.67;;;;;;;25.37;41.96;99907.41;4422855;32;33556;-69
2023/07/10 00:56:24;;;;;;;5.70;2.80;;;;;;;25.21;42.38;99903.16;4427460;32;34913;-67
2023/07/10 00:58:51;;;;;;;5.62;3.03;;;;;;;25.28;42.26;99895.78;4414153;32;34033;-68
2023/07/10 01:01:23;;;;;;;4.70;3.30;;;;;;;25.31;42.03;99903.59;4414882;32;33542;-68
2023/07/10 01:03:53;;;;;;;5.03;2.60;;;;;;;25.36;42.11;99907.59;4414190;32;32693;-68
2023/07/10 01:06:25;;;;;;;5.47;2.83;;;;;;;25.34;42.31;99910.56;4416370;32;34566;-66
2023/07/10 01:08:55;;;;;;;7.15;3.00;;;;;;;25.26;42.28;99906.09;4415978;32;36529;-68
2023/07/10 01:11:23;;;;;;;5.97;2.95;;;;;;;25.34;41.76;99910.56;4416824;32;34833;-67
2023/07/10 01:13:53;;;;;;;5.78;2.95;;;;;;;25.33;41.78;99911.63;4411189;32;34337;-68
2023/07/10 01:16:22;;;;;;;4.82;2.87;;;;;;;25.31;41.78;99908.22;4404486;32;33855;-68
2023/07/10 01:18:50;;;;;;;4.95;2.65;;;;;;;25.17;41.78;99904.63;4415616;32;34115;-68
2023/07/10 01:21:31;;;;;;;5.18;3.12;;;;;;;25.26;41.73;99900.63;4399618;32;33866;-64
2023/07/10 01:24:04;;;;;;;4.05;2.30;;;;;;;25.18;42.02;99903.56;4408403;32;32976;-67
2023/07/10 01:26:34;;;;;;;6.35;3.05;;;;;;;25.10;42.18;99901.84;4415096;32;35008;-68
2023/07/10 01:29:02;;;;;;;6.25;2.90;;;;;;;25.10;42.02;99896.34;4402193;32;33616;-69
2023/07/10 01:31:30;;;;;;;6.72;3.40;;;;;;;25.10;42.06;99898.22;4427446;32;33997;-68
2023/07/10 01:34:01;;;;;;;3.78;2.20;;;;;;;25.01;42.15;99910.44;4434301;32;33020;-68
2023/07/10 01:36:34;;;;;;;4.95;2.22;;;;;;;25.11;41.92;99905.41;4427029;32;34602;-68
2023/07/10 01:39:10;;;;;;;4.22;2.67;;;;;;;25.04;42.10;99901.78;4418982;32;33679;-63
2023/07/10 01:41:40;;;;;;;5.35;2.72;;;;;;;24.96;42.26;99902.81;4424445;32;33992;-66
2023/07/10 01:44:30;;;;;;;5.50;2.58;;;;;;;25.03;42.00;99903.69;4434438;32;33547;-67
2023/07/10 01:46:59;;;;;;;7.07;3.20;;;;;;;25.01;42.03;99907.69;4431474;32;33747;-67
2023/07/10 01:49:53;;;;;;;4.03;2.33;;;;;;;24.90;42.30;99905.53;4433441;32;33782;-67
2023/07/10 01:52:22;;;;;;;7.00;3.08;;;;;;;24.89;42.18;99904.69;4432248;32;33875;-66
2023/07/10 01:54:50;;;;;;;5.93;3.17;;;;;;;24.90;42.16;99900.88;4435075;32;33108;-67
2023/07/10 01:57:23;;;;;;;3.67;2.55;;;;;;;24.78;42.34;99892.44;4435049;32;33909;-67
2023/07/10 01:59:52;;;;;;;6.10;3.37;;;;;;;24.90;42.17;99897.31;4433276;32;34998;-67
2023/07/10 02:02:19;;;;;;;4.68;2.42;;;;;;;24.96;42.06;99897.34;4433476;32;33511;-66
2023/07/10 02:04:47;;;;;;;7.97;2.45;;;;;;;24.96;41.94;99900.06;4434367;32;33896;-66
2023/07/10 02:07:15;;;;;;;5.12;3.10;;;;;;;24.96;41.89;99901.97;4435745;32;33575;-68
2023/07/10 02:09:42;;;;;;;5.12;2.65;;;;;;;24.97;41.86;99893.53;4434386;32;33829;-67
2023/07/10 02:12:11;;;;;;;6.62;3.17;;;;;;;25.02;41.80;99892.94;4433014;32;34713;-67
2023/07/10 02:14:40;;;;;;;4.90;2.85;;;;;;;25.01;41.76;99894.84;4432344;32;34266;-66
2023/07/10 02:17:08;;;;;;;5.65;2.90;;;;;;;24.96;41.71;99900.06;4434001;32;34189;-64
2023/07/10 02:19:35;;;;;;;5.78;3.28;;;;;;;24.92;41.78;99895.22;4433345;32;36584;-67
2023/07/10 02:22:03;;;;;;;6.30;3.05;;;;;;;24.76;42.11;99896.41;4433485;32;33758;-65
2023/07/10 02:24:31;;;;;;;4.62;2.58;;;;;;;24.90;41.85;99903.63;4435743;32;33556;-67
2023/07/10 02:26:59;;;;;;;6.57;2.90;;;;;;;24.89;41.81;99896.47;4435435;32;33645;-68
2023/07/10 02:29:28;;;;;;;6.82;3.03;;;;;;;24.81;42.15;99899.38;4435524;32;35312;-67
2023/07/10 02:31:55;;;;;;;5.35;2.83;;;;;;;24.91;41.99;99897.13;4432914;32;33645;-67
2023/07/10 02:34:23;;;;;;;5.22;3.33;;;;;;;24.92;42.12;99907.00;4435053;32;33311;-66
2023/07/10 02:36:51;;;;;;;5.40;2.40;;;;;;;24.91;42.11;99893.50;4433184;32;35090;-68
2023/07/10 02:39:18;;;;;;;9.38;2.87;;;;;;;24.91;42.18;99899.00;4435759;32;34141;-67
2023/07/10 02:41:46;;;;;;;5.37;2.62;;;;;;;24.92;42.22;99892.50;4434216;32;32347;-67
2023/07/10 02:44:14;;;;;;;5.35;2.72;;;;;;;24.87;42.40;99893.91;4435383;32;33386;-67
2023/07/10 02:46:41;;;;;;;4.12;2.45;;;;;;;24.82;42.57;99893.72;4433420;32;33838;-68
2023/07/10 02:49:09;;;;;;;4.97;2.72;;;;;;;24.81;42.71;99889.25;4434498;32;33894;-68
2023/07/10 02:51:36;;;;;;;5.07;2.58;;;;;;;24.67;43.16;99893.00;4434924;32;34878;-68
2023/07/10 02:54:11;;;;;;;5.85;3.28;;;;;;;24.71;43.16;99893.44;4430835;32;33002;-67
2023/07/10 02:56:39;;;;;;;;;;;;;;;24.63;43.50;99895.28;4429884;32;35296;-69
2023/07/10 02:59:06;;;;;;;5.30;3.22;;;;;;;24.61;43.71;99889.16;4430694;32;34166;-66
2023/07/10 03:01:34;;;;;;;5.10;2.45;;;;;;;24.73;43.50;99886.72;4662251;26;34900;-60
2023/07/10 03:04:02;;;;;;;5.07;2.65;;;;;;;24.85;43.47;99890.56;4447343;32;33505;-60
2023/07/10 03:06:30;;;;;;;5.72;2.75;;;;;;;24.96;43.34;99888.28;4448951;32;33896;-59
2023/07/10 03:08:58;;;;;;;5.97;3.15;;;;;;;25.01;43.23;99885.78;4436837;32;33776;-60
2023/07/10 03:11:28;;;;;;;6.35;2.78;;;;;;;24.92;43.60;99882.38;4444569;32;34268;-60
2023/07/10 03:13:55;;;;;;;6.03;3.45;;;;;;;24.99;43.48;99879.66;4449619;32;34349;-60
2023/07/10 03:16:23;;;;;;;6.15;3.17;;;;;;;24.96;43.61;99880.91;4437925;32;33087;-60
2023/07/10 03:18:51;;;;;;;7.43;3.97;;;;;;;25.13;43.26;99883.31;4447590;32;33443;-60
2023/07/10 03:21:19;;;;;;;5.05;2.75;;;;;;;25.27;43.13;99882.31;4450381;32;34196;-60
2023/07/10 03:23:48;;;;;;;9.35;3.35;;;;;;;25.30;43.19;99882.75;4449203;32;32676;-62
2023/07/10 03:26:16;;;;;;;6.10;3.60;;;;;;;25.09;43.73;99891.91;4437089;32;33881;-60
2023/07/10 03:28:43;;;;;;;6.05;2.50;;;;;;;25.11;43.68;99888.97;4430775;32;33586;-60
2023/07/10 03:31:11;;;;;;;5.93;3.62;;;;;;;25.26;43.34;99886.91;4434245;32;33802;-61
2023/07/10 03:33:39;;;;;;;6.22;3.42;;;;;;;25.24;43.46;99880.81;4431280;32;33287;-60
2023/07/10 03:36:07;;;;;;;5.93;2.92;;;;;;;25.23;43.64;99875.53;4437078;32;33727;-60
2023/07/10 03:38:36;;;;;;;6.62;3.40;;;;;;;25.27;43.60;99885.91;4436306;32;34888;-60
2023/07/10 03:41:03;;;;;;;7.78;3.50;;;;;;;25.33;43.58;99878.75;4434852;32;33980;-61
2023/07/10 03:43:31;;;;;;;5.97;3.12;;;;;;;25.29;43.73;99870.06;4432499;32;33881;-60
2023/07/10 03:45:59;;;;;;;6.30;3.33;;;;;;;25.32;43.77;99875.12;4435068;32;34393;-61
2023/07/10 03:48:26;;;;;;;7.78;3.80;;;;;;;25.33;43.91;99874.09;4435832;32;33642;-61
2023/07/10 03:50:54;;;;;;;7.00;3.95;;;;;;;25.31;44.08;99865.25;4436347;32;34088;-61
2023/07/10 03:53:21;;;;;;;4.72;3.12;;;;;;;25.31;44.19;99876.19;4435726;32;33065;-61
2023/07/10 03:55:51;;;;;;;6.87;3.58;;;;;;;25.16;44.69;99867.31;4424663;32;33475;-60
2023/07/10 03:58:24;;;;;;;9.90;4.12;;;;;;;25.27;44.55;99872.19;4434864;32;35195;-60
2023/07/10 04:00:52;;;;;;;8.45;4.05;;;;;;;25.42;44.29;99874.72;4435657;32;33710;-60
2023/07/10 04:03:22;;;;;;;5.37;3.03;;;;;;;25.44;44.49;99877.28;4434010;32;34635;-59
2023/07/10 04:05:52;;;;;;;8.13;3.92;;;;;;;25.53;44.45;99871.41;4433380;32;33688;-60
2023/07/10 04:08:21;;;;;;;6.93;3.55;;;;;;;25.49;44.68;99866.53;4434010;32;34630;-60
2023/07/10 04:10:54;;;;;;;6.85;3.45;;;;;;;25.63;44.55;99873.72;4436911;32;33711;-60
2023/07/10 04:13:23;;;;;;;5.47;3.40;;;;;;;25.60;44.86;99881.53;4435819;32;34113;-61
2023/07/10 04:16:10;;;;;;;8.18;3.10;;;;;;;25.65;44.96;99876.25;4436251;32;33713;-61
2023/07/10 04:18:40;;;;;;;6.53;3.22;;;;;;;25.78;44.93;99873.53;4430408;32;35172;-60
2023/07/10 04:21:16;;;;;;;9.05;3.00;;;;;;;25.85;44.79;99881.78;4435855;32;33469;-61
2023/07/10 04:23:44;;;;;;;6.03;2.95;;;;;;;25.90;44.97;99887.47;4429256;32;33118;-60
2023/07/10 04:26:23;;;;;;;6.82;3.25;;;;;;;25.92;45.08;99880.72;4436498;32;33815;-60
2023/07/10 04:28:53;;;;;;;4.40;2.80;;;;;;;25.78;45.63;99884.50;4436971;32;33724;-60
2023/07/10 04:31:21;;;;;;;7.20;3.62;;;;;;;25.92;45.55;99886.19;4435519;32;34029;-60
2023/07/10 04:33:50;;;;;;;7.07;3.65;;;;;;;25.99;45.31;99878.81;4434797;32;33319;-60
2023/07/10 04:36:19;;;;;;;8.23;4.15;;;;;;;26.09;45.26;99883.03;4436608;32;33947;-61
2023/07/10 04:38:47;;;;;;;13.07;3.85;;;;;;;26.24;45.13;99881.75;4436013;32;33709;-59
2023/07/10 04:41:20;;;;;;;5.87;3.78;;;;;;;26.37;45.10;99874.56;4434900;32;34696;-60
2023/07/10 04:43:48;;;;;;;7.75;3.53;;;;;;;26.47;45.01;99872.19;4429836;32;33182;-60
2023/07/10 04:46:18;;;;;;;6.53;3.60;;;;;;;26.58;45.27;99879.81;4438056;32;33958;-60
2023/07/10 04:48:46;;;;;;;7.37;3.90;;;;;;;26.68;45.53;99880.19;4435566;32;34124;-60
2023/07/10 04:51:15;;;;;;;6.15;4.32;;;;;;;26.82;45.58;99880.97;4436727;32;34692;-60
2023/07/10 04:53:43;;;;;;;6.95;3.62;;;;;;;26.94;45.39;99879.25;4435162;32;33457;-61
2023/07/10 04:56:12;;;;;;;6.50;3.45;;;;;;;27.06;45.26;99870.31;4436457;32;34973;-59
2023/07/10 04:58:57;;;;;;;6.62;3.25;;;;;;;27.13;45.35;99879.37;4436341;32;34005;-61
2023/07/10 05:01:28;;;;;;;7.87;3.92;;;;;;;27.25;45.45;99880.38;4424947;32;34883;-60
2023/07/10 05:03:57;;;;;;;6.60;3.45;;;;;;;27.36;45.46;99879.69;4433460;32;32824;-60
2023/07/10 05:06:25;;;;;;;6.70;3.70;;;;;;;27.43;45.75;99882.38;4430084;32;34065;-60
2023/07/10 05:08:58;;;;;;;7.87;3.65;;;;;;;27.57;45.72;99877.63;4433342;32;34019;-61
2023/07/10 05:11:28;;;;;;;5.28;2.85;;;;;;;27.64;45.72;99881.19;4433332;32;33949;-61
2023/07/10 05:13:57;;;;;;;8.15;4.22;;;;;;;27.81;45.39;99887.84;4430604;32;33520;-61
2023/07/10 05:16:24;;;;;;;11.00;4.65;;;;;;;27.94;45.20;99891.56;4432702;32;33761;-61
2023/07/10 05:18:52;;;;;;;9.90;4.28;;;;;;;28.01;45.59;99893.19;4430032;32;35038;-60
2023/07/10 05:21:20;;;;;;;5.95;3.85;;;;;;;28.13;45.46;99887.78;4436495;32;34953;-60
2023/07/10 05:23:48;;;;;;;7.62;4.53;;;;;;;28.25;45.44;99887.88;4430151;32;33305;-61
2023/07/10 05:26:17;;;;;;;8.45;4.47;;;;;;;28.30;44.96;99888.03;4431801;32;33767;-60
2023/07/10 05:28:44;;;;;;;8.15;4.55;;;;;;;28.46;44.65;99881.97;4429546;32;34701;-60
2023/07/10 05:31:12;;;;;;;7.55;4.78;;;;;;;28.54;44.65;99884.44;4433805;32;34324;-60
2023/07/10 05:33:40;;;;;;;9.00;4.80;;;;;;;28.69;44.34;99883.22;4434338;32;33338;-61
2023/07/10 05:36:10;;;;;;;10.50;4.68;;;;;;;28.80;44.02;99879.69;4436200;32;34421;-60
2023/07/10 05:38:38;;;;;;;17.40;5.80;;;;;;;28.98;43.25;99885.16;4434766;32;33975;-61
2023/07/10 05:41:07;;;;;;;10.55;4.85;;;;;;;29.10;42.95;99898.22;4434554;32;33737;-60
2023/07/10 05:43:35;;;;;;;8.30;4.93;;;;;;;29.04;43.05;99890.88;4433546;32;34394;-62
2023/07/10 05:46:03;;;;;;;10.32;5.12;;;;;;;28.84;43.46;99888.34;4433858;32;33626;-61
2023/07/10 05:48:32;;;;;;;8.60;4.37;;;;;;;29.15;42.97;99887.31;4433138;32;34031;-60
2023/07/10 05:51:00;;;;;;;9.93;5.35;;;;;;;29.26;43.28;99892.03;4430653;32;34033;-60
2023/07/10 05:53:28;;;;;;;8.05;4.57;;;;;;;28.99;43.68;99891.53;4432628;32;34030;-60
2023/07/10 05:55:57;;;;;;;10.43;5.35;;;;;;;29.25;43.79;99888.44;4434628;32;33740;-60
2023/07/10 05:58:26;;;;;;;8.93;5.22;;;;;;;29.01;43.56;99894.91;4433360;32;34342;-60
2023/07/10 06:00:57;;;;;;;9.93;5.28;;;;;;;29.26;42.81;99889.28;4428877;32;33585;-60
2023/07/10 06:03:26;;;;;;;8.90;5.32;;;;;;;29.47;42.70;99891.53;4400458;32;34124;-60
2023/07/10 06:05:56;;;;;;;8.52;5.00;;;;;;;29.60;42.59;99897.91;4403549;32;33867;-60
2023/07/10 06:08:24;;;;;;;8.10;5.68;;;;;;;29.63;42.81;99901.09;4403300;32;34610;-60
2023/07/10 06:10:52;;;;;;;8.43;5.35;;;;;;;29.68;42.31;99889.34;4400799;32;35050;-61
2023/07/10 06:13:20;;;;;;;9.73;5.35;;;;;;;29.78;42.76;99897.88;4401311;32;33690;-61
2023/07/10 06:15:50;;;;;;;8.18;5.53;;;;;;;29.72;43.14;99885.00;4398123;32;33649;-61
2023/07/10 06:18:18;;;;;;;7.68;4.70;;;;;;;29.85;43.05;99887.56;4402386;32;35042;-61
2023/07/10 06:20:53;;;;;;;8.48;4.75;;;;;;;29.88;42.20;99887.06;4400223;32;33581;-60
2023/07/10 06:23:22;;;;;;;10.15;5.60;;;;;;;29.48;44.28;99882.19;4402189;32;33876;-60
2023/07/10 06:25:51;;;;;;;7.93;4.37;;;;;;;29.79;42.90;99880.25;4399006;32;33699;-61
2023/07/10 06:28:19;;;;;;;7.57;4.62;;;;;;;29.57;43.44;99879.94;4402838;32;35088;-61
2023/07/10 06:30:58;;;;;;;11.30;5.90;;;;;;;29.93;43.17;99884.47;4395626;32;34915;-61
2023/07/10 06:33:26;;;;;;;8.02;5.18;;;;;;;30.11;43.05;99885.41;4400839;32;34017;-61
2023/07/10 06:35:55;;;;;;;9.27;4.68;;;;;;;30.22;42.80;99886.56;4401146;32;33986;-61
2023/07/10 06:38:22;;;;;;;14.63;5.40;;;;;;;30.20;41.35;99885.94;4404584;32;33810;-60
2023/07/10 06:40:50;;;;;;;7.35;4.60;;;;;;;30.43;40.10;99880.41;4402048;32;33991;-60
2023/07/10 06:43:20;;;;;;;8.45;5.18;;;;;;;30.29;40.69;99882.59;4404258;32;34088;-61
2023/07/10 06:45:48;;;;;;;10.20;5.72;;;;;;;30.30;40.60;99875.97;4402528;32;35285;-61
2023/07/10 06:48:16;;;;;;;8.50;5.55;;;;;;;30.19;40.84;99882.34;4405776;32;33905;-62
2023/07/10 06:50:55;;;;;;;8.95;4.57;;;;;;;30.44;41.76;99881.28;4392150;32;33811;-62
2023/07/10 06:53:24;;;;;;;8.80;6.00;;;;;;;30.71;39.70;99885.16;4394756;32;33107;-60
2023/07/10 06:55:57;;;;;;;7.55;4.65;;;;;;;30.56;41.48;99879.31;4404216;32;33631;-61
2023/07/10 06:58:25;;;;;;;7.03;4.45;;;;;;;30.75;40.99;99878.06;4404631;32;34153;-60
2023/07/10 07:00:53;;;;;;;7.32;5.10;;;;;;;30.38;42.36;99877.53;4400708;32;33913;-61
2023/07/10 07:03:21;;;;;;;11.12;5.72;;;;;;;30.65;41.88;99869.56;4432242;32;33349;-61
2023/07/10 07:05:49;;;;;;;8.38;5.20;;;;;;;30.47;40.77;99875.25;4435364;32;34047;-61
2023/07/10 07:08:17;;;;;;;8.48;5.65;;;;;;;30.74;40.36;99875.56;4433312;32;34201;-61
2023/07/10 07:10:46;;;;;;;7.20;4.50;;;;;;;30.90;40.04;99882.28;4433009;32;34287;-61
2023/07/10 07:13:14;;;;;;;8.90;4.72;;;;;;;30.85;39.94;99875.56;4430592;32;32836;-61
2023/07/10 07:15:42;;;;;;;8.25;5.10;;;;;;;30.65;40.15;99875.09;4435048;32;34700;-61
2023/07/10 07:18:09;;;;;;;8.88;4.35;;;;;;;30.85;39.77;99872.81;4434136;32;35215;-61
2023/07/10 07:20:38;;;;;;;8.13;4.65;;;;;;;31.05;39.05;99874.31;4435566;32;33689;-60
2023/07/10 07:23:05;;;;;;;9.90;4.57;;;;;;;30.91;39.49;99870.97;4432908;32;33419;-60
2023/07/10 07:25:33;;;;;;;9.05;4.87;;;;;;;30.92;39.79;99867.16;4431568;32;34383;-61
2023/07/10 07:28:03;;;;;;;9.75;5.32;;;;;;;30.66;39.51;99868.50;4430625;32;34983;-60
2023/07/10 07:30:32;;;;;;;6.80;4.35;;;;;;;31.03;37.96;99873.69;4432745;32;34624;-60
2023/07/10 07:33:00;;;;;;;8.18;4.65;;;;;;;31.18;36.95;99871.25;4434143;32;33125;-60
2023/07/10 07:35:28;;;;;;;9.15;4.78;;;;;;;31.06;38.64;99868.53;4428966;32;34703;-60
2023/07/10 07:37:56;;;;;;;7.43;4.57;;;;;;;30.49;39.17;99876.69;4433993;32;35342;-60
2023/07/10 07:40:25;;;;;;;12.70;5.65;;;;;;;30.99;38.81;99869.75;4436040;32;33806;-60
2023/07/10 07:42:52;;;;;;;9.40;5.25;;;;;;;31.00;38.01;99863.97;4433515;32;34182;-60
2023/07/10 07:45:20;;;;;;;7.87;5.57;;;;;;;31.30;37.41;99862.88;4431057;32;34874;-59
2023/07/10 07:47:48;;;;;;;7.75;4.87;;;;;;;31.50;37.00;99866.06;4434131;32;33882;-60
2023/07/10 07:50:16;;;;;;;6.53;3.72;;;;;;;31.45;36.96;99865.97;4427243;32;241548;-59
2023/07/10 07:52:43;;;;;;;6.55;4.45;;;;;;;31.61;36.93;99872.59;4430748;32;33063;-60
2023/07/10 07:55:11;;;;;;;9.38;4.85;;;;;;;31.66;37.36;99864.41;4430751;32;33599;-61
2023/07/10 07:57:39;;;;;;;9.32;4.78;;;;;;;31.74;36.32;99868.69;4433469;32;33812;-59
2023/07/10 08:00:08;;;;;;;10.13;5.53;;;;;;;31.77;35.29;99868.19;4431486;32;34709;-60
2023/07/10 08:02:38;;;;;;;8.48;5.15;;;;;;;31.50;35.02;99863.31;4431880;32;32944;-60
2023/07/10 08:05:07;;;;;;;8.68;4.80;;;;;;;31.69;36.59;99857.53;4434125;32;34502;-61
2023/07/10 08:07:46;;;;;;;9.10;5.45;;;;;;;31.60;36.01;99857.09;4433754;32;33978;-60
2023/07/10 08:10:14;;;;;;;9.05;4.57;;;;;;;31.38;36.13;99857.00;4431747;32;34883;-61
2023/07/10 08:12:42;;;;;;;8.85;5.05;;;;;;;31.56;36.92;99858.72;4434322;32;31908;-61
2023/07/10 08:15:09;;;;;;;6.87;4.10;;;;;;;31.28;36.32;99851.25;4433062;32;34456;-61
2023/07/10 08:17:37;;;;;;;6.68;3.62;;;;;;;31.83;36.05;99847.81;4433040;32;34644;-61
2023/07/10 08:20:07;;;;;;;8.88;5.12;;;;;;;31.49;35.95;99846.94;4435196;32;34171;-61
2023/07/10 08:22:35;;;;;;;6.47;4.25;;;;;;;31.54;35.55;99844.28;4428339;32;34221;-62
2023/07/10 08:25:03;;;;;;;6.93;3.95;;;;;;;31.45;35.67;99848.53;4432244;32;33925;-62
2023/07/10 08:27:31;;;;;;;9.10;3.95;;;;;;;31.79;34.45;99847.47;4435061;32;34707;-63
2023/07/10 08:29:58;;;;;;;10.45;4.85;;;;;;;31.96;33.98;99833.66;4435852;32;34029;-63
2023/07/10 08:32:26;;;;;;;8.98;5.18;;;;;;;32.09;34.46;99840.78;4434747;32;34544;-63
2023/07/10 08:34:53;;;;;;;10.43;5.30;;;;;;;31.98;35.72;99839.78;4433586;32;34484;-62
2023/07/10 08:37:21;;;;;;;8.55;5.20;;;;;;;31.90;33.45;99831.06;4431359;32;34054;-63
2023/07/10 08:39:49;;;;;;;8.30;4.82;;;;;;;31.70;33.59;99828.78;4436990;32;33750;-62
2023/07/10 08:42:20;;;;;;;7.60;4.78;;;;;;;31.88;33.83;99834.09;4427007;32;34236;-62
2023/07/10 08:44:53;;;;;;;8.13;4.35;;;;;;;32.05;33.58;99822.16;4426759;32;33754;-61
2023/07/10 08:47:34;;;;;;;9.63;5.47;;;;;;;31.93;33.70;99834.16;4431696;32;33950;-61
2023/07/10 08:50:03;;;;;;;8.60;4.12;;;;;;;32.25;33.42;99825.22;4443709;32;34868;-61
2023/07/10 08:52:46;;;;;;;8.63;4.82;;;;;;;32.05;33.51;99834.06;4431749;32;33224;-62
2023/07/10 08:55:27;;;;;;;6.95;4.50;;;;;;;32.21;32.89;99824.91;4423168;32;35598;-61
2023/07/10 08:57:58;;;;;;;9.20;5.40;;;;;;;32.06;33.58;99821.06;4427693;32;35394;-62
2023/07/10 09:00:28;;;;;;;6.82;4.90;;;;;;;32.05;34.42;99820.22;4428560;32;35726;-61
2023/07/10 09:03:17;;;;;;;7.30;5.03;;;;;;;32.38;33.42;99824.00;4427015;32;34219;-61
2023/07/10 09:05:49;;;;;;;11.20;4.95;;;;;;;32.27;34.65;99823.03;4426162;32;33904;-61
2023/07/10 09:08:17;;;;;;;13.70;5.18;;;;;;;32.06;34.18;99824.66;4424608;32;34201;-60
2023/07/10 09:10:47;;;;;;;11.00;5.53;;;;;;;32.33;34.30;99822.03;4436569;32;34608;-61
2023/07/10 09:13:27;;;;;;;8.23;4.93;;;;;;;32.30;33.87;99816.16;4443942;32;34294;-62
2023/07/10 09:15:56;;;;;;;10.00;5.18;;;;;;;32.22;33.18;99817.41;4431650;32;33492;-61
2023/07/10 09:18:51;;;;;;;10.63;4.78;;;;;;;32.35;33.07;99818.97;4432744;32;33803;-62
2023/07/10 09:21:21;;;;;;;8.68;5.00;;;;;;;32.13;34.03;99805.94;4434824;32;33472;-62
2023/07/10 09:23:49;;;;;;;9.55;5.20;;;;;;;32.39;32.79;99806.28;4431240;32;34054;-61
2023/07/10 09:26:25;;;;;;;8.15;5.43;;;;;;;32.89;32.45;99813.59;4425752;32;35477;-61
2023/07/10 09:29:14;;;;;;;6.35;4.12;;;;;;;33.28;31.87;99808.75;4430486;32;35041;-62
2023/07/10 09:32:08;;;;;;;9.45;5.75;;;;;;;33.23;32.33;99794.87;4427614;32;33766;-62
2023/07/10 09:34:50;;;;;;;11.32;5.20;;;;;;;33.10;32.55;99798.91;4423364;32;33874;-62
2023/07/10 09:37:20;;;;;;;12.88;5.72;;;;;;;33.70;31.20;99798.91;4425347;32;33444;-62
2023/07/10 09:39:48;;;;;;;9.43;4.82;;;;;;;33.49;32.97;99797.88;4420743;32;34698;-62
2023/07/10 09:42:19;;;;;;;9.20;4.72;;;;;;;33.74;30.26;99794.47;4423492;32;33949;-61
2023/07/10 09:44:54;;;;;;;7.55;5.07;;;;;;;33.57;30.98;99797.41;4423301;32;33523;-61
2023/07/10 09:47:22;;;;;;;7.60;4.50;;;;;;;33.82;30.52;99797.59;4425729;32;32299;-61
2023/07/10 09:49:55;;;;;;;6.43;4.53;;;;;;;34.08;29.91;99790.31;4431589;32;34932;-61
2023/07/10 09:52:30;;;;;;;6.80;4.78;;;;;;;34.43;30.16;99791.59;4430767;32;33754;-61
2023/07/10 09:55:00;;;;;;;8.95;4.85;;;;;;;33.97;29.98;99787.72;4425622;32;34093;-61
2023/07/10 09:57:29;;;;;;;8.63;4.45;;;;;;;34.31;29.73;99791.81;4425383;32;34022;-61
2023/07/10 09:59:59;;;;;;;8.80;4.85;;;;;;;34.35;28.56;99792.12;4426498;32;35025;-62
2023/07/10 10:02:34;;;;;;;7.30;4.35;;;;;;;34.48;28.45;99783.31;4438574;32;32542;-61
2023/07/10 10:05:11;;;;;;;7.93;4.80;;;;;;;34.76;28.48;99781.19;4429889;32;35144;-62
2023/07/10 10:07:41;;;;;;;9.48;4.65;;;;;;;34.56;28.10;99770.00;4429790;32;34193;-62
2023/07/10 10:10:20;;;;;;;7.30;4.35;;;;;;;34.59;28.56;99769.47;4429501;32;33782;-62
2023/07/10 10:12:52;;;;;;;8.50;4.47;;;;;;;35.10;28.19;99769.62;4423246;32;33610;-61
2023/07/10 10:15:37;;;;;;;7.37;4.78;;;;;;;34.72;27.77;99778.13;4431507;32;33042;-61
2023/07/10 10:18:06;;;;;;;6.68;4.53;;;;;;;35.21;27.39;99771.28;4431533;32;33864;-61
2023/07/10 10:20:35;;;;;;;12.07;4.20;;;;;;;35.37;27.33;99761.00;4420520;32;33775;-61
2023/07/10 10:23:02;;;;;;;8.63;4.60;;;;;;;35.18;26.53;99758.78;4396780;32;34926;-61
2023/07/10 10:25:39;;;;;;;7.12;4.70;;;;;;;35.23;26.41;99764.34;4398390;32;34829;-61
2023/07/10 10:28:16;;;;;;;7.75;5.00;;;;;;;35.27;26.70;99745.16;4385582;32;33717;-61
2023/07/10 10:30:52;;;;;;;7.37;4.68;;;;;;;35.32;27.18;99747.13;4400804;32;33935;-61
2023/07/10 10:33:46;;;;;;;7.10;4.53;;;;;;;35.88;26.63;99735.94;4401461;32;34671;-62
2023/07/10 10:36:29;;;;;;;6.57;4.40;;;;;;;35.72;26.77;99737.09;4386001;32;33991;-62
2023/07/10 10:39:14;;;;;;;6.65;4.45;;;;;;;35.90;26.99;99744.84;4402665;32;33470;-61
2023/07/10 10:41:45;;;;;;;;;;;;;;;36.16;26.50;99748.44;4401902;32;34944;-61
2023/07/10 10:44:16;;;;;;;7.43;4.45;;;;;;;36.49;26.56;99740.50;4399903;32;35200;-62
2023/07/10 10:46:55;;;;;;;10.40;4.62;;;;;;;36.41;26.82;99741.06;4401371;32;33178;-62
2023/07/10 10:49:46;;;;;;;7.20;5.07;;;;;;;36.58;26.77;99739.63;4400994;32;35342;-62
2023/07/10 10:52:46;;;;;;;7.85;4.93;;;;;;;36.49;27.06;99741.31;4390027;32;34951;-62
2023/07/10 10:55:38;;;;;;;6.97;4.68;;;;;;;36.64;26.49;99743.22;4430081;32;33586;-62
2023/07/10 10:58:15;;;;;;;8.05;4.90;;;;;;;36.78;26.65;99737.84;4442798;32;33121;-62
2023/07/10 11:01:17;;;;;;;8.18;5.03;;;;;;;36.76;26.47;99731.72;4432625;32;33814;-62
2023/07/10 11:03:57;;;;;;;8.15;5.22;;;;;;;36.66;26.39;99734.56;4431528;32;34173;-62
2023/07/10 11:06:59;;;;;;;7.40;5.03;;;;;;;36.61;26.29;99732.66;4424773;32;33821;-62
2023/07/10 11:09:39;;;;;;;8.85;4.80;;;;;;;36.61;26.78;99736.28;4434425;32;33429;-62
2023/07/10 11:12:17;;;;;;;6.72;4.50;;;;;;;36.50;26.76;99725.44;4443796;32;33569;-62
2023/07/10 11:14:45;;;;;;;6.60;4.72;;;;;;;36.86;26.32;99720.53;4427791;32;34708;-61
2023/07/10 11:17:13;;;;;;;7.97;4.75;;;;;;;36.80;26.60;99730.03;4444232;32;35052;-61
2023/07/10 11:19:41;;;;;;;11.85;5.12;;;;;;;36.94;25.96;99717.09;4435264;32;33980;-61
2023/07/10 11:22:31;;;;;;;8.73;4.62;;;;;;;37.18;25.87;99714.44;4435104;32;33294;-62
2023/07/10 11:25:01;;;;;;;8.65;5.07;;;;;;;36.66;26.62;99713.09;4436462;32;33910;-60
2023/07/10 11:27:41;;;;;;;8.77;4.87;;;;;;;36.72;25.92;99711.94;4446865;32;33420;-62
2023/07/10 11:30:12;;;;;;;7.93;5.03;;;;;;;36.82;25.21;99711.91;4457739;32;34370;-61
2023/07/10 11:33:01;;;;;;;9.02;4.30;;;;;;;36.19;25.33;99711.66;4450969;32;34508;-61
2023/07/10 11:35:30;;;;;;;7.93;5.10;;;;;;;36.02;25.43;99717.56;4447501;32;33887;-61
2023/07/10 11:38:03;;;;;;;7.12;4.43;;;;;;;36.10;23.23;99711.37;4446487;32;33356;-61
2023/07/10 11:40:31;;;;;;;8.88;4.47;;;;;;;36.43;23.30;99708.19;4453301;32;34241;-62
2023/07/10 11:43:01;;;;;;;7.93;4.62;;;;;;;36.50;23.18;99709.59;4448414;32;34662;-61
2023/07/10 11:45:35;;;;;;;6.93;4.60;;;;;;;36.43;24.00;99714.59;4446985;32;34959;-62
2023/07/10 11:48:02;;;;;;;;;;;;;;;36.35;24.28;99710.47;4441610;32;33578;-62
2023/07/10 11:50:30;;;;;;;8.00;4.25;;;;;;;36.55;23.88;99703.13;4436294;32;34288;-61
2023/07/10 11:53:19;;;;;;;7.57;4.70;;;;;;;36.41;23.89;99696.47;4434489;32;34102;-61